createdAt,value
2018-07-04T00:02:21.740Z,8.30
2018-07-04T00:05:00.823Z,9.30
2018-07-04T00:07:39.991Z,8.13
2018-07-04T00:10:18.867Z,8.50
2018-07-04T00:12:57.891Z,8.55
2018-07-04T00:15:36.832Z,8.50
2018-07-04T00:18:15.961Z,8.33
2018-07-04T00:20:55.027Z,8.38
2018-07-04T00:23:34.205Z,8.20
2018-07-04T00:26:13.436Z,8.43
2018-07-04T00:28:52.486Z,8.78
2018-07-04T00:31:31.439Z,8.00
2018-07-04T00:34:10.394Z,8.35
2018-07-04T00:36:49.471Z,8.48
2018-07-04T00:39:28.435Z,7.95
2018-07-04T00:42:07.450Z,8.38
2018-07-04T00:44:46.427Z,8.28
2018-07-04T00:47:25.444Z,8.53
2018-07-04T00:50:04.479Z,8.40
2018-07-04T00:52:43.551Z,7.97
2018-07-04T00:55:22.530Z,7.92
2018-07-04T00:58:01.459Z,8.33
2018-07-04T01:00:40.375Z,8.58
2018-07-04T01:03:19.601Z,8.63
2018-07-04T01:05:58.897Z,8.23
2018-07-04T01:08:37.991Z,8.23
2018-07-04T01:11:17.072Z,8.48
2018-07-04T01:13:55.937Z,8.70
2018-07-04T01:16:34.882Z,8.33
2018-07-04T01:19:13.930Z,8.60
2018-07-04T01:21:53.173Z,8.63
2018-07-04T01:24:32.101Z,7.78
2018-07-04T01:27:11.083Z,8.15
2018-07-04T01:29:49.962Z,7.80
2018-07-04T01:32:29.283Z,8.50
2018-07-04T01:35:08.389Z,8.30
2018-07-04T01:37:47.755Z,8.30
2018-07-04T01:40:26.686Z,8.35
2018-07-04T01:43:05.884Z,9.03
2018-07-04T01:45:44.893Z,8.90
2018-07-04T01:48:23.916Z,8.63
2018-07-04T01:51:02.824Z,8.48
2018-07-04T01:53:42.341Z,8.90
2018-07-04T01:56:21.535Z,8.65
2018-07-04T01:59:00.796Z,9.05
2018-07-04T02:01:39.882Z,8.05
2018-07-04T02:04:19.283Z,8.43
2018-07-04T02:06:58.250Z,8.80
2018-07-04T02:09:37.258Z,8.58
2018-07-04T02:12:16.174Z,8.75
2018-07-04T02:14:55.090Z,9.20
2018-07-04T02:17:34.253Z,8.85
2018-07-04T02:20:13.521Z,8.73
2018-07-04T02:22:52.632Z,8.78
2018-07-04T02:25:31.621Z,8.98
2018-07-04T02:28:10.680Z,8.60
2018-07-04T02:30:50.212Z,8.83
2018-07-04T02:33:29.200Z,9.05
2018-07-04T02:36:08.315Z,8.95
2018-07-04T02:38:47.222Z,9.03
2018-07-04T02:41:26.589Z,8.35
2018-07-04T02:44:05.685Z,9.30
2018-07-04T02:46:44.781Z,8.70
2018-07-04T02:49:23.938Z,9.15
2018-07-04T02:52:03.114Z,8.95
2018-07-04T02:54:42.113Z,8.83
2018-07-04T02:57:21.216Z,9.58
2018-07-04T03:00:00.284Z,8.95
2018-07-04T03:02:39.759Z,9.25
2018-07-04T03:05:18.816Z,9.55
2018-07-04T03:07:57.720Z,9.25
2018-07-04T03:10:36.734Z,9.40
2018-07-04T03:13:15.811Z,9.28
2018-07-04T03:15:54.758Z,9.43
2018-07-04T03:18:34.130Z,9.40
2018-07-04T03:21:13.192Z,9.58
2018-07-04T03:23:52.131Z,9.35
2018-07-04T03:26:31.143Z,8.95
2018-07-04T03:29:10.409Z,9.35
2018-07-04T03:31:49.438Z,9.55
2018-07-04T03:34:28.425Z,9.70
2018-07-04T03:37:07.665Z,9.58
2018-07-04T03:39:46.638Z,9.90
2018-07-04T03:42:25.684Z,9.80
2018-07-04T03:45:04.639Z,9.53
2018-07-04T03:47:43.727Z,9.70
2018-07-04T03:50:23.093Z,9.90
2018-07-04T03:53:02.197Z,9.93
2018-07-04T03:55:41.279Z,9.70
2018-07-04T03:58:20.496Z,10.10
2018-07-04T04:00:59.754Z,9.53
2018-07-04T04:03:38.854Z,10.32
2018-07-04T04:06:17.895Z,10.50
2018-07-04T04:08:57.034Z,12.03
2018-07-04T04:11:36.353Z,9.63
2018-07-04T04:14:15.461Z,9.60
2018-07-04T04:16:54.801Z,10.75
2018-07-04T04:19:34.473Z,10.38
2018-07-04T04:22:14.758Z,10.65
2018-07-04T04:24:53.640Z,11.20
2018-07-04T04:27:32.684Z,11.35
2018-07-04T04:30:11.746Z,11.83
2018-07-04T04:32:50.876Z,12.05
2018-07-04T04:35:30.588Z,12.40
2018-07-04T04:38:09.847Z,12.45
2018-07-04T04:40:48.924Z,12.85
2018-07-04T04:43:28.019Z,14.00
2018-07-04T04:46:07.175Z,13.05
2018-07-04T04:48:46.806Z,12.28
2018-07-04T04:51:25.771Z,13.43
2018-07-04T04:54:04.788Z,13.30
2018-07-04T04:56:43.667Z,13.93
2018-07-04T04:59:23.362Z,14.00
2018-07-04T05:02:03.482Z,13.15
2018-07-04T05:04:42.517Z,13.13
2018-07-04T05:07:21.675Z,12.10
2018-07-04T05:10:00.634Z,12.47
2018-07-04T05:12:39.535Z,11.43
2018-07-04T05:15:18.906Z,11.25
2018-07-04T05:17:57.830Z,11.05
2018-07-04T05:20:36.988Z,10.90
2018-07-04T05:23:15.930Z,12.07
2018-07-04T05:25:54.955Z,11.60
2018-07-04T05:28:33.922Z,18.73
2018-07-04T05:31:13.106Z,11.28
2018-07-04T05:33:52.100Z,11.90
2018-07-04T05:36:31.495Z,10.55
2018-07-04T05:39:10.584Z,10.55
2018-07-04T05:41:50.018Z,10.75
2018-07-04T05:44:29.166Z,10.23
2018-07-04T05:47:08.332Z,10.50
2018-07-04T05:49:47.426Z,11.43
2018-07-04T05:52:26.514Z,10.68
2018-07-04T05:55:05.524Z,10.53
2018-07-04T05:57:44.652Z,10.58
2018-07-04T06:00:23.804Z,11.05
2018-07-04T06:03:02.787Z,10.45
2018-07-04T06:05:41.809Z,10.58
2018-07-04T06:08:20.824Z,10.55
2018-07-04T06:10:59.906Z,9.90
2018-07-04T06:13:38.850Z,10.15
2018-07-04T06:16:18.050Z,9.53
2018-07-04T06:18:57.032Z,10.63
2018-07-04T06:21:36.111Z,10.35
2018-07-04T06:24:15.523Z,10.58
2018-07-04T06:26:54.713Z,10.30
2018-07-04T06:29:34.214Z,10.15
2018-07-04T06:32:13.321Z,9.98
2018-07-04T06:34:52.272Z,10.40
2018-07-04T06:37:31.262Z,11.03
2018-07-04T06:39:59.144Z,9.73
2018-07-04T06:42:25.774Z,10.05
2018-07-04T06:44:52.420Z,10.00
2018-07-04T06:47:19.020Z,12.05
2018-07-04T06:49:45.601Z,10.43
2018-07-04T06:52:12.309Z,11.33
2018-07-04T06:54:38.908Z,10.88
2018-07-04T06:57:05.543Z,11.30
2018-07-04T06:59:32.179Z,10.35
2018-07-04T07:02:12.372Z,10.18
2018-07-04T07:04:52.421Z,10.80
2018-07-04T07:07:31.814Z,10.43
2018-07-04T07:10:10.906Z,10.32
2018-07-04T07:12:50.057Z,11.12
2018-07-04T07:15:29.856Z,14.93
2018-07-04T07:18:09.195Z,10.50
2018-07-04T07:20:48.409Z,9.83
2018-07-04T07:23:27.577Z,10.08
2018-07-04T07:26:06.651Z,10.23
2018-07-04T07:28:45.695Z,10.30
2018-07-04T07:31:25.588Z,10.48
2018-07-04T07:34:05.375Z,11.05
2018-07-04T07:36:44.630Z,12.63
2018-07-04T07:39:24.189Z,11.70
2018-07-04T07:42:03.764Z,10.90
2018-07-04T07:44:42.677Z,10.80
2018-07-04T07:47:21.664Z,11.12
2018-07-04T07:50:00.752Z,11.10
2018-07-04T07:52:39.947Z,10.45
2018-07-04T07:55:19.088Z,10.72
2018-07-04T07:57:58.191Z,9.93
2018-07-04T08:00:37.359Z,8.60
2018-07-04T08:03:16.436Z,9.25
2018-07-04T08:05:55.783Z,9.13
2018-07-04T08:08:34.875Z,9.88
2018-07-04T08:11:14.413Z,8.50
2018-07-04T08:13:54.009Z,8.85
2018-07-04T08:16:33.143Z,8.63
2018-07-04T08:19:12.380Z,3.87
2018-07-04T08:21:51.395Z,3.22
2018-07-04T08:24:30.750Z,3.40
2018-07-04T08:27:10.013Z,3.52
2018-07-04T08:29:49.201Z,3.58
2018-07-04T08:32:28.248Z,4.25
2018-07-04T08:35:07.511Z,4.03
2018-07-04T08:37:47.840Z,3.90
2018-07-04T08:40:27.071Z,4.50
2018-07-04T08:43:06.027Z,4.70
2018-07-04T08:45:44.963Z,4.50
2018-07-04T08:48:24.015Z,5.45
2018-07-04T08:51:02.912Z,5.00
2018-07-04T08:53:41.956Z,5.30
2018-07-04T08:56:21.121Z,4.50
2018-07-04T08:59:00.041Z,5.45
2018-07-04T09:01:39.086Z,5.22
2018-07-04T09:04:18.188Z,5.40
2018-07-04T09:06:57.492Z,4.90
2018-07-04T09:09:36.362Z,5.28
2018-07-04T09:12:15.438Z,5.28
2018-07-04T09:14:54.469Z,5.85
2018-07-04T09:17:33.484Z,5.97
2018-07-04T09:20:12.382Z,5.95
2018-07-04T09:22:51.748Z,5.67
2018-07-04T09:25:30.925Z,5.85
2018-07-04T09:28:09.845Z,5.67
2018-07-04T09:30:48.984Z,5.83
2018-07-04T09:33:27.915Z,5.40
2018-07-04T09:36:07.094Z,5.62
2018-07-04T09:38:46.332Z,6.35
2018-07-04T09:41:25.412Z,6.10
2018-07-04T09:44:04.426Z,6.65
2018-07-04T09:46:43.719Z,5.60
2018-07-04T09:49:22.704Z,5.83
2018-07-04T09:52:02.122Z,5.83
2018-07-04T09:54:41.316Z,4.95
2018-07-04T09:57:20.356Z,5.50
2018-07-04T09:59:59.524Z,5.50
2018-07-04T10:02:38.689Z,5.40
2018-07-04T10:05:17.969Z,5.62
2018-07-04T10:07:56.917Z,5.97
2018-07-04T10:10:35.930Z,5.87
2018-07-04T10:13:14.917Z,5.83
2018-07-04T10:15:53.960Z,5.70
2018-07-04T10:18:33.697Z,5.40
2018-07-04T10:21:13.748Z,5.50
2018-07-04T10:23:52.866Z,5.90
2018-07-04T10:26:31.950Z,5.77
2018-07-04T10:29:10.930Z,5.15
2018-07-04T10:31:50.454Z,5.67
2018-07-04T10:34:29.544Z,5.55
2018-07-04T10:37:08.723Z,5.30
2018-07-04T10:39:48.265Z,5.30
2018-07-04T10:42:27.248Z,5.08
2018-07-04T10:45:06.360Z,5.00
2018-07-04T10:47:45.447Z,4.97
2018-07-04T10:50:24.508Z,5.90
2018-07-04T10:53:03.419Z,6.17
2018-07-04T10:55:42.448Z,4.97
2018-07-04T10:58:22.469Z,5.65
2018-07-04T11:01:01.528Z,5.65
2018-07-04T11:03:40.675Z,5.78
2018-07-04T11:06:19.981Z,5.40
2018-07-04T11:08:59.178Z,5.08
2018-07-04T11:11:38.481Z,5.92
2018-07-04T11:14:17.819Z,6.00
2018-07-04T11:16:57.100Z,6.00
2018-07-04T11:19:36.046Z,6.85
2018-07-04T11:22:15.042Z,6.53
2018-07-04T11:24:54.059Z,6.45
2018-07-04T11:27:32.969Z,6.15
2018-07-04T11:30:12.561Z,6.67
2018-07-04T11:32:52.337Z,6.28
2018-07-04T11:35:31.452Z,6.47
2018-07-04T11:38:10.590Z,6.10
2018-07-04T11:40:49.674Z,6.72
2018-07-04T11:43:28.866Z,6.92
2018-07-04T11:45:58.158Z,7.70
2018-07-04T11:48:24.920Z,7.75
2018-07-04T11:50:52.384Z,8.30
2018-07-04T11:53:19.063Z,7.65
2018-07-04T11:55:45.706Z,7.45
2018-07-04T11:58:13.073Z,8.05
2018-07-04T12:00:39.671Z,8.40
2018-07-04T12:03:13.818Z,7.72
2018-07-04T12:05:53.084Z,7.72
2018-07-04T12:08:20.020Z,7.85
2018-07-04T12:10:47.189Z,8.88
2018-07-04T12:13:13.955Z,10.58
2018-07-04T12:15:40.555Z,9.38
2018-07-04T12:18:11.049Z,8.58
2018-07-04T12:20:37.741Z,7.60
2018-07-04T12:23:04.393Z,9.53
2018-07-04T12:25:30.984Z,10.45
2018-07-04T12:27:57.618Z,10.80
2018-07-04T12:30:24.193Z,10.10
2018-07-04T12:32:50.930Z,10.45
2018-07-04T12:35:17.567Z,10.25
2018-07-04T12:37:44.274Z,11.18
2018-07-04T12:40:10.873Z,10.23
2018-07-04T12:42:37.488Z,10.40
2018-07-04T12:45:04.169Z,10.03
2018-07-04T12:47:30.964Z,10.20
2018-07-04T12:49:57.613Z,10.00
2018-07-04T12:52:24.288Z,10.80
2018-07-04T12:55:03.613Z,10.53
2018-07-04T12:57:42.513Z,11.68
2018-07-04T13:00:21.542Z,10.32
2018-07-04T13:03:00.650Z,9.80
2018-07-04T13:05:39.660Z,10.35
2018-07-04T13:08:18.794Z,10.95
2018-07-04T13:10:57.660Z,9.85
2018-07-04T13:13:36.954Z,10.60
2018-07-04T13:16:15.988Z,10.18
2018-07-04T13:18:55.854Z,10.72
2018-07-04T13:21:35.305Z,10.63
2018-07-04T13:24:14.742Z,10.70
2018-07-04T13:26:53.591Z,10.30
2018-07-04T13:29:33.239Z,10.43
2018-07-04T13:32:12.694Z,10.13
2018-07-04T13:34:52.336Z,10.55
2018-07-04T13:37:31.873Z,10.72
2018-07-04T13:40:11.364Z,10.25
2018-07-04T13:42:50.470Z,11.80
2018-07-04T13:45:29.569Z,11.15
2018-07-04T13:48:08.552Z,10.07
2018-07-04T13:50:47.887Z,10.32
2018-07-04T13:53:26.961Z,10.28
2018-07-04T13:56:06.354Z,10.80
2018-07-04T13:58:45.400Z,10.40
2018-07-04T14:01:24.431Z,10.63
2018-07-04T14:04:03.410Z,10.68
2018-07-04T14:06:42.831Z,11.22
2018-07-04T14:09:22.025Z,10.55
2018-07-04T14:12:01.178Z,9.83
2018-07-04T14:14:40.211Z,9.23
2018-07-04T14:17:19.279Z,9.63
2018-07-04T14:19:59.000Z,9.33
2018-07-04T14:22:38.359Z,10.20
2018-07-04T14:25:17.415Z,9.93
2018-07-04T14:27:56.554Z,8.53
2018-07-04T14:30:35.652Z,8.70
2018-07-04T14:33:14.891Z,8.85
2018-07-04T14:35:53.948Z,8.78
2018-07-04T14:38:32.961Z,8.93
2018-07-04T14:41:12.149Z,8.35
2018-07-04T14:43:51.080Z,9.30
2018-07-04T14:46:29.960Z,11.15
2018-07-04T14:49:09.306Z,12.03
2018-07-04T14:51:48.641Z,9.40
2018-07-04T14:54:27.760Z,9.70
2018-07-04T14:57:06.940Z,10.88
2018-07-04T14:59:47.445Z,9.50
2018-07-04T15:02:26.507Z,9.85
2018-07-04T15:05:05.714Z,9.73
2018-07-04T15:07:44.748Z,10.00
2018-07-04T15:10:23.843Z,9.93
2018-07-04T15:13:02.835Z,10.03
2018-07-04T15:15:41.859Z,9.60
2018-07-04T15:18:20.828Z,9.83
2018-07-04T15:21:00.181Z,10.53
2018-07-04T15:23:39.335Z,11.45
2018-07-04T15:26:18.446Z,11.50
2018-07-04T15:28:57.778Z,11.22
2018-07-04T15:31:36.909Z,11.88
2018-07-04T15:34:16.040Z,11.10
2018-07-04T15:36:55.032Z,11.83
2018-07-04T15:39:34.100Z,11.65
2018-07-04T15:42:13.449Z,12.23
2018-07-04T15:44:52.557Z,11.22
2018-07-04T15:47:31.618Z,11.10
2018-07-04T15:50:10.532Z,12.50
2018-07-04T15:52:49.686Z,11.75
2018-07-04T15:55:28.861Z,11.68
2018-07-04T15:58:08.418Z,12.35
2018-07-04T16:00:47.277Z,12.13
2018-07-04T16:03:26.250Z,11.48
2018-07-04T16:06:05.297Z,12.03
2018-07-04T16:08:44.652Z,12.35
2018-07-04T16:11:23.566Z,12.18
2018-07-04T16:14:02.605Z,12.28
2018-07-04T16:16:41.696Z,13.00
2018-07-04T16:19:20.768Z,12.95
2018-07-04T16:22:00.176Z,12.85
2018-07-04T16:24:39.205Z,12.58
2018-07-04T16:27:18.318Z,13.70
2018-07-04T16:29:57.413Z,13.50
2018-07-04T16:32:36.436Z,13.48
2018-07-04T16:35:15.567Z,12.65
2018-07-04T16:37:54.494Z,13.20
2018-07-04T16:40:33.517Z,14.05
2018-07-04T16:43:12.534Z,13.85
2018-07-04T16:45:52.150Z,14.83
2018-07-04T16:48:31.360Z,15.05
2018-07-04T16:51:10.578Z,15.10
2018-07-04T16:53:49.668Z,15.48
2018-07-04T16:56:28.853Z,15.70
2018-07-04T16:59:08.108Z,15.93
2018-07-04T17:01:47.124Z,15.45
2018-07-04T17:04:26.119Z,14.85
2018-07-04T17:07:05.147Z,15.50
2018-07-04T17:09:44.033Z,15.65
2018-07-04T17:12:23.008Z,15.58
2018-07-04T17:15:03.073Z,15.25
2018-07-04T17:17:41.966Z,16.05
2018-07-04T17:20:20.891Z,15.95
2018-07-04T17:23:00.302Z,16.00
2018-07-04T17:25:39.207Z,16.25
2018-07-04T17:28:18.681Z,16.37
2018-07-04T17:30:57.843Z,21.20
2018-07-04T17:33:37.401Z,16.45
2018-07-04T17:36:16.466Z,16.67
2018-07-04T17:38:55.588Z,17.73
2018-07-04T17:41:35.168Z,16.40
2018-07-04T17:44:14.809Z,21.20
2018-07-04T17:46:53.904Z,16.10
2018-07-04T17:49:33.161Z,16.48
2018-07-04T17:52:12.348Z,14.70
2018-07-04T17:54:51.423Z,10.38
2018-07-04T17:57:30.647Z,9.23
2018-07-04T18:00:09.690Z,8.33
2018-07-04T18:02:48.840Z,8.83
2018-07-04T18:05:27.977Z,8.18
2018-07-04T18:08:07.156Z,9.03
2018-07-04T18:10:46.262Z,9.90
2018-07-04T18:13:25.380Z,9.13
2018-07-04T18:16:06.381Z,10.38
2018-07-04T18:18:47.490Z,11.53
2018-07-04T18:21:27.026Z,9.33
2018-07-04T18:24:07.539Z,7.75
2018-07-04T18:26:47.106Z,9.93
2018-07-04T18:29:26.307Z,14.35
2018-07-04T18:32:06.287Z,10.28
2018-07-04T18:34:45.430Z,9.75
2018-07-04T18:37:24.782Z,15.00
2018-07-04T18:40:05.091Z,14.05
2018-07-04T18:42:44.872Z,13.55
2018-07-04T18:45:28.703Z,15.08
2018-07-04T18:48:09.082Z,14.40
2018-07-04T18:50:48.135Z,15.43
2018-07-04T18:53:27.503Z,16.73
2018-07-04T18:56:06.622Z,18.60
2018-07-04T18:58:45.752Z,19.65
2018-07-04T19:01:24.969Z,21.87
2018-07-04T19:04:04.119Z,20.30
2018-07-04T19:06:43.094Z,18.60
2018-07-04T19:09:22.218Z,25.08
2018-07-04T19:12:01.160Z,19.25
2018-07-04T19:14:40.656Z,18.73
2018-07-04T19:17:19.664Z,17.85
2018-07-04T19:19:58.729Z,18.07
2018-07-04T19:22:37.982Z,20.20
2018-07-04T19:25:18.436Z,18.32
2018-07-04T19:27:57.598Z,16.10
2018-07-04T19:30:36.990Z,17.50
2018-07-04T19:33:15.984Z,17.98
2018-07-04T19:35:55.148Z,18.50
2018-07-04T19:38:34.327Z,18.57
2018-07-04T19:41:13.337Z,17.75
2018-07-04T19:43:52.531Z,18.23
2018-07-04T19:46:31.788Z,17.62
2018-07-04T19:49:10.758Z,18.37
2018-07-04T19:51:50.142Z,19.45
2018-07-04T19:54:29.298Z,18.25
2018-07-04T19:57:09.030Z,17.62
2018-07-04T19:59:47.941Z,18.15
2018-07-04T20:02:27.053Z,16.70
2018-07-04T20:05:06.015Z,16.48
2018-07-04T20:07:45.213Z,17.02
2018-07-04T20:10:24.382Z,17.27
2018-07-04T20:13:03.468Z,16.77
2018-07-04T20:15:42.467Z,16.15
2018-07-04T20:18:21.485Z,17.50
2018-07-04T20:21:00.436Z,17.73
2018-07-04T20:23:39.407Z,17.77
2018-07-04T20:26:18.471Z,18.55
2018-07-04T20:28:57.497Z,19.55
2018-07-04T20:31:36.612Z,17.65
2018-07-04T20:34:15.576Z,18.00
2018-07-04T20:36:54.805Z,17.42
2018-07-04T20:39:33.814Z,16.77
2018-07-04T20:42:12.839Z,16.95
2018-07-04T20:44:52.160Z,16.05
2018-07-04T20:47:33.265Z,16.52
2018-07-04T20:50:12.470Z,15.93
2018-07-04T20:52:51.429Z,16.42
2018-07-04T20:55:30.584Z,15.55
2018-07-04T20:58:09.516Z,15.43
2018-07-04T21:00:48.613Z,16.55
2018-07-04T21:03:27.694Z,16.48
2018-07-04T21:06:06.770Z,17.02
2018-07-04T21:08:45.775Z,17.60
2018-07-04T21:11:25.122Z,17.37
2018-07-04T21:14:04.205Z,17.07
2018-07-04T21:16:43.204Z,16.80
2018-07-04T21:19:22.265Z,17.70
2018-07-04T21:22:01.396Z,16.67
2018-07-04T21:24:40.352Z,16.95
2018-07-04T21:27:19.760Z,16.15
2018-07-04T21:29:58.903Z,15.83
2018-07-04T21:32:37.969Z,15.90
2018-07-04T21:35:17.084Z,16.30
2018-07-04T21:37:56.109Z,15.80
2018-07-04T21:40:35.112Z,16.60
2018-07-04T21:43:14.348Z,16.15
2018-07-04T21:45:53.335Z,15.58
2018-07-04T21:48:33.130Z,15.08
2018-07-04T21:51:12.341Z,14.13
2018-07-04T21:53:51.562Z,15.00
2018-07-04T21:56:30.493Z,14.45
2018-07-04T21:59:09.648Z,14.60
2018-07-04T22:01:48.836Z,13.60
2018-07-04T22:04:27.990Z,13.03
2018-07-04T22:07:07.042Z,13.58
2018-07-04T22:09:46.080Z,12.80
2018-07-04T22:12:24.979Z,13.72
2018-07-04T22:15:03.953Z,13.35
2018-07-04T22:17:42.979Z,13.50
2018-07-04T22:20:24.378Z,14.03
2018-07-04T22:23:03.889Z,13.68
2018-07-04T22:25:42.930Z,13.53
2018-07-04T22:28:21.956Z,13.28
2018-07-04T22:31:01.129Z,13.90
2018-07-04T22:33:40.400Z,15.08
2018-07-04T22:36:19.358Z,14.55
2018-07-04T22:38:58.404Z,13.38
2018-07-04T22:41:37.614Z,13.60
2018-07-04T22:44:16.626Z,13.62
2018-07-04T22:46:55.747Z,14.13
2018-07-04T22:49:34.748Z,13.13
2018-07-04T22:52:13.783Z,13.40
2018-07-04T22:54:52.859Z,13.40
2018-07-04T22:57:31.856Z,13.18
2018-07-04T23:00:10.756Z,13.22
2018-07-04T23:02:49.761Z,13.50
2018-07-04T23:05:28.786Z,13.18
2018-07-04T23:08:07.825Z,13.68
2018-07-04T23:10:46.747Z,13.25
2018-07-04T23:13:25.851Z,13.10
2018-07-04T23:16:04.818Z,12.93
2018-07-04T23:18:43.911Z,13.35
2018-07-04T23:21:22.817Z,13.80
2018-07-04T23:24:01.908Z,13.43
2018-07-04T23:26:40.914Z,14.25
2018-07-04T23:29:19.848Z,14.25
2018-07-04T23:31:59.484Z,13.90
2018-07-04T23:34:38.480Z,13.70
2018-07-04T23:37:17.480Z,13.32
2018-07-04T23:39:56.402Z,14.23
2018-07-04T23:42:35.381Z,13.90
2018-07-04T23:45:14.541Z,14.70
2018-07-04T23:47:54.591Z,14.55
2018-07-04T23:50:33.587Z,13.70
2018-07-04T23:53:12.652Z,14.28
2018-07-04T23:55:51.609Z,13.95
2018-07-04T23:58:30.763Z,14.03
